createdAt,value
2023-05-18T00:02:50.928Z,75.12
2023-05-18T00:07:54.238Z,75.50
2023-05-18T00:12:57.760Z,75.74
2023-05-18T00:18:01.193Z,75.70
2023-05-18T00:23:04.584Z,75.59
2023-05-18T00:28:08.094Z,75.98
2023-05-18T00:33:11.682Z,76.53
2023-05-18T00:38:18.211Z,75.84
2023-05-18T00:43:21.643Z,75.94
2023-05-18T00:48:24.823Z,76.28
2023-05-18T00:53:28.030Z,76.14
2023-05-18T00:58:31.750Z,75.37
2023-05-18T01:03:34.990Z,76.10
2023-05-18T01:08:38.064Z,76.56
2023-05-18T01:14:02.670Z,76.60
2023-05-18T01:19:45.014Z,76.85
2023-05-18T01:24:58.356Z,76.89
2023-05-18T01:30:02.298Z,76.51
2023-05-18T01:35:06.497Z,75.90
2023-05-18T01:40:10.018Z,76.38
2023-05-18T01:45:23.065Z,75.71
2023-05-18T01:50:40.103Z,74.77
2023-05-18T01:55:46.060Z,74.66
2023-05-18T02:00:50.133Z,75.57
2023-05-18T02:05:53.291Z,76.76
2023-05-18T02:10:56.498Z,77.66
2023-05-18T02:15:59.857Z,76.80
2023-05-18T02:21:04.378Z,76.30
2023-05-18T02:26:08.473Z,76.92
2023-05-18T02:31:12.297Z,77.37
2023-05-18T02:36:15.400Z,75.00
2023-05-18T02:41:18.610Z,73.49
2023-05-18T02:46:21.796Z,74.16
2023-05-18T02:51:25.639Z,73.06
2023-05-18T02:56:29.363Z,75.25
2023-05-18T03:01:35.186Z,76.17
2023-05-18T03:06:38.760Z,76.28
2023-05-18T03:11:42.261Z,77.05
2023-05-18T03:16:45.501Z,77.70
2023-05-18T03:21:49.749Z,78.66
2023-05-18T03:26:55.472Z,78.08
2023-05-18T03:31:58.925Z,77.95
2023-05-18T03:37:02.309Z,77.75
2023-05-18T03:42:05.404Z,77.57
2023-05-18T03:47:08.613Z,77.50
2023-05-18T03:52:12.237Z,76.26
2023-05-18T03:57:17.081Z,76.42
2023-05-18T04:02:26.966Z,74.94
2023-05-18T04:07:30.353Z,71.59
2023-05-18T04:12:33.457Z,67.50
2023-05-18T04:17:36.899Z,64.62
2023-05-18T04:22:43.582Z,60.62
2023-05-18T04:27:48.377Z,58.86
2023-05-18T04:32:55.006Z,57.51
2023-05-18T04:37:58.510Z,57.34
2023-05-18T04:43:02.081Z,57.77
2023-05-18T04:48:05.913Z,58.18
2023-05-18T04:53:09.770Z,57.54
2023-05-18T04:58:13.552Z,58.14
2023-05-18T05:03:16.897Z,57.28
2023-05-18T05:08:20.237Z,56.03
2023-05-18T05:13:23.526Z,53.24
2023-05-18T05:18:26.840Z,52.08
2023-05-18T05:23:30.249Z,52.55
2023-05-18T05:28:33.552Z,52.95
2023-05-18T05:33:36.975Z,53.36
2023-05-18T05:38:40.785Z,50.60
2023-05-18T05:43:44.221Z,50.48
2023-05-18T05:48:47.928Z,49.79
2023-05-18T05:53:51.440Z,47.84
2023-05-18T05:58:54.753Z,44.92
2023-05-18T06:03:58.089Z,43.93
2023-05-18T06:09:02.217Z,45.21
2023-05-18T06:14:06.708Z,43.60
2023-05-18T06:19:11.475Z,44.05
2023-05-18T06:24:15.193Z,41.58
2023-05-18T06:29:19.013Z,38.83
2023-05-18T06:34:22.224Z,37.15
2023-05-18T06:39:26.087Z,35.66
2023-05-18T06:44:30.281Z,36.35
2023-05-18T06:49:33.500Z,34.42
2023-05-18T06:54:37.617Z,36.31
2023-05-18T06:59:41.037Z,35.52
2023-05-18T07:04:44.359Z,32.02
2023-05-18T07:09:50.018Z,34.96
2023-05-18T07:14:53.428Z,31.93
2023-05-18T07:19:56.833Z,32.79
2023-05-18T07:25:00.975Z,31.21
2023-05-18T07:30:06.104Z,28.89
2023-05-18T07:35:10.396Z,30.68
2023-05-18T07:40:14.377Z,30.33
2023-05-18T07:45:18.002Z,30.80
2023-05-18T07:50:22.119Z,29.46
2023-05-18T07:55:25.336Z,30.80
2023-05-18T08:00:28.743Z,26.49
2023-05-18T08:05:32.302Z,27.06
2023-05-18T08:10:35.979Z,27.44
2023-05-18T08:15:41.349Z,28.62
2023-05-18T08:20:44.756Z,27.88
2023-05-18T08:25:48.264Z,28.01
2023-05-18T08:30:52.701Z,28.98
2023-05-18T08:35:56.931Z,30.33
2023-05-18T08:41:12.023Z,29.43
2023-05-18T08:46:22.726Z,27.54
2023-05-18T08:51:30.012Z,25.42
2023-05-18T08:56:34.752Z,27.04
2023-05-18T09:01:39.714Z,28.01
2023-05-18T09:06:44.074Z,28.60
2023-05-18T09:11:47.646Z,28.36
2023-05-18T09:16:50.958Z,28.51
2023-05-18T09:21:54.478Z,30.59
2023-05-18T09:26:57.789Z,29.24
2023-05-18T09:32:09.048Z,29.99
2023-05-18T09:37:12.759Z,30.37
2023-05-18T09:42:16.224Z,31.17
2023-05-18T09:47:19.464Z,31.62
2023-05-18T09:52:22.736Z,31.38
2023-05-18T09:57:26.366Z,31.84
2023-05-18T10:02:31.439Z,31.19
2023-05-18T10:07:36.587Z,32.87
2023-05-18T10:12:41.164Z,32.57
2023-05-18T10:17:45.641Z,32.49
2023-05-18T10:22:50.221Z,32.18
2023-05-18T10:27:58.127Z,31.85
2023-05-18T10:33:06.933Z,32.87
2023-05-18T10:38:19.466Z,34.38
2023-05-18T10:43:27.943Z,35.50
2023-05-18T10:48:31.824Z,34.54
2023-05-18T10:53:36.954Z,34.71
2023-05-18T10:58:41.002Z,34.65
2023-05-18T11:03:45.340Z,34.19
2023-05-18T11:08:51.017Z,34.70
2023-05-18T11:13:54.578Z,33.39
2023-05-18T11:19:09.222Z,33.03
2023-05-18T11:24:30.118Z,33.19
2023-05-18T11:29:42.204Z,33.08
2023-05-18T11:34:51.800Z,33.31
2023-05-18T11:40:00.438Z,33.40
2023-05-18T11:45:12.823Z,33.42
2023-05-18T11:50:18.106Z,34.11
2023-05-18T11:55:21.722Z,34.05
2023-05-18T12:00:25.750Z,33.52
2023-05-18T12:05:35.736Z,33.99
2023-05-18T12:10:40.151Z,32.44
2023-05-18T12:15:45.002Z,31.91
2023-05-18T12:20:50.257Z,32.40
2023-05-18T12:25:53.868Z,32.90
2023-05-18T12:30:57.519Z,34.19
2023-05-18T12:36:00.704Z,33.29
2023-05-18T12:41:04.112Z,33.70
2023-05-18T12:46:07.674Z,34.31
2023-05-18T12:51:19.529Z,34.23
2023-05-18T12:56:25.642Z,34.88
2023-05-18T13:01:29.144Z,36.31
2023-05-18T13:06:32.758Z,36.73
2023-05-18T13:11:36.059Z,36.35
2023-05-18T13:16:45.208Z,35.85
2023-05-18T13:21:57.127Z,35.83
2023-05-18T13:27:00.325Z,35.31
2023-05-18T13:32:04.391Z,35.54
2023-05-18T13:37:10.295Z,35.46
2023-05-18T13:42:14.804Z,35.62
2023-05-18T13:47:18.176Z,34.72
2023-05-18T13:52:21.587Z,34.67
2023-05-18T13:57:26.586Z,35.47
2023-05-18T14:02:29.806Z,35.57
2023-05-18T14:07:33.374Z,34.78
2023-05-18T14:12:37.487Z,35.16
2023-05-18T14:17:41.755Z,34.56
2023-05-18T14:22:45.043Z,34.29
2023-05-18T14:27:48.347Z,33.93
2023-05-18T14:32:52.000Z,34.27
2023-05-18T14:37:55.694Z,34.38
2023-05-18T14:42:58.998Z,35.06
2023-05-18T14:48:02.431Z,35.42
2023-05-18T14:53:05.813Z,35.24
2023-05-18T14:58:12.816Z,34.06
2023-05-18T15:03:17.747Z,35.57
2023-05-18T15:08:21.170Z,36.66
2023-05-18T15:13:26.777Z,36.76
2023-05-18T15:18:30.047Z,36.70
2023-05-18T15:23:33.253Z,36.89
2023-05-18T15:28:36.569Z,36.78
2023-05-18T15:33:42.853Z,36.87
2023-05-18T15:38:46.263Z,37.03
2023-05-18T15:43:49.673Z,37.03
2023-05-18T15:48:56.168Z,37.49
2023-05-18T15:53:59.678Z,37.50
2023-05-18T15:59:03.705Z,37.64
2023-05-18T16:04:07.032Z,37.78
2023-05-18T16:09:10.559Z,38.49
2023-05-18T16:14:16.707Z,39.29
2023-05-18T16:19:21.672Z,40.03
2023-05-18T16:24:24.979Z,40.13
2023-05-18T16:29:28.208Z,40.89
2023-05-18T16:34:31.799Z,41.54
2023-05-18T16:39:35.614Z,41.81
2023-05-18T16:44:39.334Z,41.81
2023-05-18T16:49:46.491Z,42.35
2023-05-18T16:54:50.052Z,42.72
2023-05-18T16:59:53.785Z,42.83
2023-05-18T17:04:59.232Z,43.01
2023-05-18T17:10:05.249Z,43.64
2023-05-18T17:15:13.020Z,43.95
2023-05-18T17:20:16.463Z,44.32
2023-05-18T17:25:20.969Z,45.00
2023-05-18T17:30:24.281Z,45.07
2023-05-18T17:35:28.315Z,46.10
2023-05-18T17:40:32.553Z,46.64
2023-05-18T17:45:36.471Z,47.18
2023-05-18T17:50:40.154Z,47.29
2023-05-18T17:55:43.808Z,48.08
2023-05-18T18:00:47.136Z,48.38
2023-05-18T18:05:50.648Z,49.35
2023-05-18T18:10:54.557Z,49.45
2023-05-18T18:15:57.862Z,50.32
2023-05-18T18:21:01.377Z,51.01
2023-05-18T18:26:06.312Z,51.27
2023-05-18T18:31:10.015Z,51.44
2023-05-18T18:36:14.182Z,51.79
2023-05-18T18:41:17.798Z,52.18
2023-05-18T18:46:22.366Z,53.05
2023-05-18T18:51:26.574Z,53.78
2023-05-18T18:56:30.401Z,53.83
2023-05-18T19:01:35.405Z,53.78
2023-05-18T19:06:38.962Z,54.72
2023-05-18T19:11:43.105Z,53.87
2023-05-18T19:16:47.253Z,54.19
2023-05-18T19:21:51.160Z,54.17
2023-05-18T19:26:54.518Z,55.19
2023-05-18T19:31:58.556Z,55.53
2023-05-18T19:37:02.016Z,57.15
2023-05-18T19:42:06.333Z,55.39
2023-05-18T19:47:11.703Z,56.08
2023-05-18T19:52:18.995Z,55.69
2023-05-18T19:57:22.260Z,55.39
2023-05-18T20:02:26.349Z,54.76
2023-05-18T20:07:31.578Z,55.33
2023-05-18T20:12:34.841Z,56.65
2023-05-18T20:17:39.008Z,56.81
2023-05-18T20:22:42.450Z,56.04
2023-05-18T20:27:45.858Z,56.82
2023-05-18T20:32:51.039Z,56.26
2023-05-18T20:37:59.837Z,55.75
2023-05-18T20:43:05.200Z,56.15
2023-05-18T20:48:09.409Z,55.98
2023-05-18T20:53:13.253Z,56.19
2023-05-18T20:58:20.204Z,55.61
2023-05-18T21:03:23.749Z,56.47
2023-05-18T21:08:28.682Z,56.09
2023-05-18T21:13:31.925Z,56.46
2023-05-18T21:18:36.131Z,56.16
2023-05-18T21:23:39.674Z,56.86
2023-05-18T21:28:42.884Z,56.45
2023-05-18T21:33:49.265Z,57.17
2023-05-18T21:38:52.475Z,57.63
2023-05-18T21:43:59.169Z,58.20
2023-05-18T21:49:04.159Z,57.94
2023-05-18T21:54:07.525Z,58.35
2023-05-18T21:59:10.846Z,58.47
2023-05-18T22:04:14.261Z,59.00
2023-05-18T22:09:17.919Z,58.95
2023-05-18T22:14:21.700Z,59.19
2023-05-18T22:19:25.084Z,59.54
2023-05-18T22:24:28.730Z,59.74
2023-05-18T22:29:32.158Z,59.30
2023-05-18T22:34:35.236Z,59.74
2023-05-18T22:39:38.658Z,60.27
2023-05-18T22:44:41.854Z,59.91
2023-05-18T22:49:46.192Z,58.73
2023-05-18T22:54:50.023Z,59.04
2023-05-18T22:59:53.629Z,59.18
2023-05-18T23:04:56.969Z,60.54
2023-05-18T23:10:00.264Z,60.55
2023-05-18T23:15:04.378Z,60.92
2023-05-18T23:20:08.535Z,58.96
2023-05-18T23:25:12.129Z,60.26
2023-05-18T23:30:15.539Z,60.92
2023-05-18T23:35:19.369Z,62.24
2023-05-18T23:40:23.497Z,62.51
2023-05-18T23:45:28.213Z,62.30
2023-05-18T23:50:31.996Z,62.45
2023-05-18T23:55:37.278Z,62.75
